createdAt,value
2022-11-12T00:00:41.877Z,98990.16
2022-11-12T00:05:45.249Z,98988.50
2022-11-12T00:10:48.799Z,98986.75
2022-11-12T00:15:53.628Z,98985.84
2022-11-12T00:20:56.795Z,99004.75
2022-11-12T00:26:01.187Z,99001.31
2022-11-12T00:31:11.140Z,99003.97
2022-11-12T00:36:14.485Z,99006.59
2022-11-12T00:41:17.970Z,98999.66
2022-11-12T00:46:22.780Z,99009.28
2022-11-12T00:51:26.042Z,98994.53
2022-11-12T00:56:35.290Z,98975.53
2022-11-12T01:01:40.715Z,98980.66
2022-11-12T01:06:44.532Z,98966.75
2022-11-12T01:11:48.354Z,98976.25
2022-11-12T01:16:53.015Z,98973.50
2022-11-12T01:21:56.545Z,98970.97
2022-11-12T01:26:59.813Z,98966.59
2022-11-12T01:32:04.618Z,98950.09
2022-11-12T01:37:07.909Z,98956.28
2022-11-12T01:42:11.557Z,98954.56
2022-11-12T01:47:22.685Z,98957.09
2022-11-12T01:52:32.168Z,98957.03
2022-11-12T01:57:41.605Z,98936.28
2022-11-12T02:02:53.234Z,98933.69
2022-11-12T02:07:58.671Z,98932.78
2022-11-12T02:13:20.637Z,98922.44
2022-11-12T02:18:25.593Z,98921.63
2022-11-12T02:23:32.343Z,98899.09
2022-11-12T02:28:35.900Z,98904.22
2022-11-12T02:33:39.121Z,98905.91
2022-11-12T02:38:44.129Z,98892.84
2022-11-12T02:43:47.565Z,98904.16
2022-11-12T02:48:50.918Z,98901.59
2022-11-12T02:53:55.678Z,98915.38
2022-11-12T02:58:58.924Z,98915.31
2022-11-12T03:04:02.192Z,98893.00
2022-11-12T03:09:06.848Z,98897.97
2022-11-12T03:14:10.359Z,98881.53
2022-11-12T03:19:13.823Z,98845.22
2022-11-12T03:24:18.574Z,98859.16
2022-11-12T03:29:21.612Z,98868.44
2022-11-12T03:34:24.842Z,98880.75
2022-11-12T03:39:29.576Z,98875.47
2022-11-12T03:44:32.690Z,98859.81
2022-11-12T03:49:36.241Z,98856.50
2022-11-12T03:54:41.054Z,98839.88
2022-11-12T03:59:44.230Z,98843.25
2022-11-12T04:05:05.212Z,98827.88
2022-11-12T04:10:10.489Z,98811.34
2022-11-12T04:15:13.984Z,98823.53
2022-11-12T04:20:34.976Z,98821.69
2022-11-12T04:25:58.684Z,98826.91
2022-11-12T04:31:02.050Z,98821.91
2022-11-12T04:36:05.572Z,98816.50
2022-11-12T04:41:28.264Z,98814.84
2022-11-12T04:46:31.669Z,98813.00
2022-11-12T04:51:52.489Z,98810.47
2022-11-12T04:56:57.397Z,98811.19
2022-11-12T05:02:00.667Z,98798.19
2022-11-12T05:07:04.400Z,98782.63
2022-11-12T05:12:09.544Z,98794.69
2022-11-12T05:17:13.113Z,98796.50
2022-11-12T05:22:40.384Z,98786.00
2022-11-12T05:27:41.461Z,98790.19
2022-11-12T05:32:44.735Z,98790.34
2022-11-12T05:37:48.267Z,98783.31
2022-11-12T05:42:53.018Z,98788.38
2022-11-12T05:47:56.545Z,98778.03
2022-11-12T05:53:00.146Z,98798.03
2022-11-12T05:58:07.937Z,98799.75
2022-11-12T06:03:12.739Z,98773.69
2022-11-12T06:08:15.742Z,98760.56
2022-11-12T06:13:20.858Z,98768.31
2022-11-12T06:18:25.616Z,98781.38
2022-11-12T06:23:29.203Z,98771.78
2022-11-12T06:28:34.046Z,98769.66
2022-11-12T06:33:37.490Z,98754.94
2022-11-12T06:38:42.372Z,98732.28
2022-11-12T06:43:47.229Z,98740.72
2022-11-12T06:48:50.493Z,98728.66
2022-11-12T06:53:55.302Z,98727.00
2022-11-12T06:59:00.358Z,98700.41
2022-11-12T07:04:03.766Z,98705.47
2022-11-12T07:09:08.120Z,98701.75
2022-11-12T07:14:13.159Z,98693.13
2022-11-12T07:19:16.829Z,98690.13
2022-11-12T07:24:20.157Z,98671.66
2022-11-12T07:29:46.415Z,98670.81
2022-11-12T07:34:48.540Z,98671.13
2022-11-12T07:39:51.802Z,98646.72
2022-11-12T07:44:56.422Z,98646.53
2022-11-12T07:50:00.371Z,98651.53
2022-11-12T07:55:03.604Z,98638.38
2022-11-12T08:00:10.972Z,98634.22
2022-11-12T08:05:18.833Z,98615.69
2022-11-12T08:10:26.696Z,98607.84
2022-11-12T08:15:31.694Z,98611.56
2022-11-12T08:20:35.226Z,98587.25
2022-11-12T08:25:38.645Z,98577.09
2022-11-12T08:30:43.416Z,98578.72
2022-11-12T08:35:46.493Z,98571.88
2022-11-12T08:40:49.781Z,98570.16
2022-11-12T08:45:54.532Z,98562.69
2022-11-12T08:50:57.842Z,98535.16
2022-11-12T08:56:01.493Z,98529.31
2022-11-12T09:01:10.080Z,98520.41
2022-11-12T09:06:13.534Z,98516.94
2022-11-12T09:11:18.215Z,98508.38
2022-11-12T09:16:24.522Z,98486.84
2022-11-12T09:21:27.801Z,98469.63
2022-11-12T09:26:31.241Z,98464.63
2022-11-12T09:31:35.880Z,98457.34
2022-11-12T09:36:40.098Z,98428.53
2022-11-12T09:41:44.287Z,98436.31
2022-11-12T09:46:52.994Z,98424.69
2022-11-12T09:52:02.754Z,98407.88
2022-11-12T09:57:11.369Z,98396.88
2022-11-12T10:02:28.853Z,98386.22
2022-11-12T10:07:47.839Z,98378.59
2022-11-12T10:13:04.867Z,98371.16
2022-11-12T10:18:12.800Z,98365.06
2022-11-12T10:23:20.829Z,98368.78
2022-11-12T10:28:34.278Z,98367.66
2022-11-12T10:33:42.017Z,98356.38
2022-11-12T10:38:46.525Z,98349.34
2022-11-12T10:43:58.567Z,98339.31
2022-11-12T10:49:05.346Z,98336.69
2022-11-12T10:54:29.300Z,98321.00
2022-11-12T10:59:34.047Z,98310.59
2022-11-12T11:04:39.288Z,98290.25
2022-11-12T11:09:54.108Z,98283.47
2022-11-12T11:15:20.167Z,98260.56
2022-11-12T11:20:27.585Z,98240.31
2022-11-12T11:25:32.853Z,98229.19
2022-11-12T11:30:46.860Z,98225.56
2022-11-12T11:36:04.914Z,98206.38
2022-11-12T11:41:30.409Z,98187.28
2022-11-12T11:46:49.737Z,98188.59
2022-11-12T11:52:03.139Z,98169.00
2022-11-12T11:57:13.141Z,98164.59
2022-11-12T12:02:30.152Z,98188.47
2022-11-12T12:07:43.437Z,98154.28
2022-11-12T12:12:59.065Z,98146.22
2022-11-12T12:18:13.887Z,98141.06
2022-11-12T12:23:23.409Z,98128.84
2022-11-12T12:28:37.790Z,98111.81
2022-11-12T12:33:48.394Z,98108.97
2022-11-12T12:38:57.337Z,98096.47
2022-11-12T12:44:05.732Z,98083.78
2022-11-12T12:49:14.541Z,98070.63
2022-11-12T12:54:54.786Z,98073.06
2022-11-12T13:00:33.816Z,98067.72
2022-11-12T13:05:40.404Z,98072.94
2022-11-12T13:10:49.717Z,98067.53
2022-11-12T13:15:56.255Z,98053.88
2022-11-12T13:21:12.110Z,98059.03
2022-11-12T13:26:54.220Z,98067.53
2022-11-12T13:32:32.374Z,98061.38
2022-11-12T13:37:35.913Z,98066.00
2022-11-12T13:42:52.295Z,98077.19
2022-11-12T13:47:59.630Z,98078.94
2022-11-12T13:53:03.361Z,98070.13
2022-11-12T13:58:19.772Z,98082.16
2022-11-12T14:03:27.084Z,98076.75
2022-11-12T14:08:56.974Z,98079.72
2022-11-12T14:14:13.405Z,98070.22
2022-11-12T14:19:52.836Z,98076.88
2022-11-12T14:25:01.580Z,98083.00
2022-11-12T14:30:15.310Z,98072.19
2022-11-12T14:35:36.197Z,98078.91
2022-11-12T14:40:45.538Z,98079.22
2022-11-12T14:45:50.368Z,98077.19
2022-11-12T14:51:08.001Z,98080.38
2022-11-12T14:56:17.823Z,98072.47
2022-11-12T15:06:58.541Z,98076.84
2022-11-12T15:12:02.153Z,98076.22
2022-11-12T15:17:06.442Z,98077.25
2022-11-12T15:22:22.979Z,98071.78
2022-11-12T15:27:36.374Z,98070.22
2022-11-12T15:32:39.593Z,98085.91
2022-11-12T15:37:44.671Z,98076.22
2022-11-12T15:42:49.339Z,98069.31
2022-11-12T15:47:52.937Z,98085.06
2022-11-12T15:52:59.584Z,98085.59
2022-11-12T15:58:03.146Z,98062.13
2022-11-12T16:03:15.049Z,98070.00
2022-11-12T16:08:20.464Z,98079.84
2022-11-12T16:13:29.381Z,98092.06
2022-11-12T16:18:32.982Z,98087.66
2022-11-12T16:23:40.122Z,98078.66
2022-11-12T16:28:44.038Z,98078.75
2022-11-12T16:33:47.585Z,98080.91
2022-11-12T16:38:52.503Z,98079.53
2022-11-12T16:43:55.897Z,98092.72
2022-11-12T16:48:59.372Z,98085.06
2022-11-12T16:54:04.160Z,98084.31
2022-11-12T16:59:07.710Z,98098.47
2022-11-12T17:04:11.613Z,98108.97
2022-11-12T17:09:18.718Z,98108.16
2022-11-12T17:14:27.105Z,98105.56
2022-11-12T17:19:31.943Z,98119.06
2022-11-12T17:24:36.691Z,98140.97
2022-11-12T17:29:40.289Z,98141.91
2022-11-12T17:34:43.702Z,98166.94
2022-11-12T17:39:48.481Z,98143.78
2022-11-12T17:44:51.891Z,98136.72
2022-11-12T17:49:55.662Z,98136.31
2022-11-12T17:55:00.484Z,98132.03
2022-11-12T18:00:04.314Z,98147.91
2022-11-12T18:05:10.526Z,98158.22
2022-11-12T18:10:19.396Z,98160.75
2022-11-12T18:15:23.196Z,98157.09
2022-11-12T18:20:26.730Z,98164.81
2022-11-12T18:25:31.513Z,98161.47
2022-11-12T18:30:36.666Z,98166.03
2022-11-12T18:35:40.127Z,98155.09
2022-11-12T18:40:44.983Z,98150.09
2022-11-12T18:45:55.423Z,98160.63
2022-11-12T18:51:03.748Z,98179.56
2022-11-12T18:56:14.769Z,98188.88
2022-11-12T19:01:21.137Z,98194.59
2022-11-12T19:06:26.719Z,98214.06
2022-11-12T19:11:31.571Z,98209.47
2022-11-12T19:16:34.977Z,98205.03
2022-11-12T19:21:39.262Z,98216.25
2022-11-12T19:26:43.976Z,98213.59
2022-11-12T19:31:47.272Z,98207.41
2022-11-12T19:37:11.850Z,98218.94
2022-11-12T19:42:15.498Z,98214.47
2022-11-12T19:47:18.744Z,98227.53
2022-11-12T19:52:22.601Z,98232.97
2022-11-12T19:57:28.081Z,98236.28
2022-11-12T20:02:31.494Z,98237.38
2022-11-12T20:07:35.050Z,98234.19
2022-11-12T20:12:40.697Z,98231.72
2022-11-12T20:17:44.292Z,98243.06
2022-11-12T20:22:47.539Z,98235.47
2022-11-12T20:27:52.458Z,98248.00
2022-11-12T20:32:55.876Z,98234.34
2022-11-12T20:38:00.167Z,98230.47
2022-11-12T20:43:05.034Z,98228.75
2022-11-12T20:48:08.461Z,98247.44
2022-11-12T20:53:12.763Z,98227.41
2022-11-12T20:58:17.592Z,98216.09
2022-11-12T21:03:21.234Z,98217.03
2022-11-12T21:08:24.955Z,98229.13
2022-11-12T21:13:29.860Z,98236.94
2022-11-12T21:18:34.172Z,98238.78
2022-11-12T21:23:39.105Z,98249.44
2022-11-12T21:28:45.881Z,98251.31
2022-11-12T21:33:51.125Z,98250.41
2022-11-12T21:38:54.751Z,98259.25
2022-11-12T21:43:59.607Z,98267.19
2022-11-12T21:49:03.308Z,98272.47
2022-11-12T21:54:08.360Z,98289.03
2022-11-12T21:59:13.091Z,98296.78
2022-11-12T22:04:18.458Z,98300.91
2022-11-12T22:09:21.796Z,98292.97
2022-11-12T22:14:26.405Z,98286.16
2022-11-12T22:19:29.884Z,98282.78
2022-11-12T22:24:33.310Z,98299.22
2022-11-12T22:29:38.044Z,98307.94
2022-11-12T22:34:43.747Z,98278.72
2022-11-12T22:39:49.049Z,98279.69
2022-11-12T22:44:53.773Z,98300.25
2022-11-12T22:49:56.761Z,98301.91
2022-11-12T22:55:00.051Z,98303.03
2022-11-12T23:00:09.580Z,98308.19
2022-11-12T23:05:13.108Z,98328.84
2022-11-12T23:10:16.400Z,98318.34
2022-11-12T23:15:21.115Z,98329.38
2022-11-12T23:20:24.723Z,98325.09
2022-11-12T23:25:28.121Z,98326.75
2022-11-12T23:30:32.825Z,98342.22
2022-11-12T23:35:35.857Z,98334.47
2022-11-12T23:40:39.230Z,98346.16
2022-11-12T23:45:44.260Z,98345.28
2022-11-12T23:50:49.416Z,98352.22
2022-11-12T23:55:53.031Z,98344.50
